Evadale, TX

8:31 AM CST on February 20, 2017 (GMT -0600)
SE Texas | | Change Station

Elev 98 ft 30.40 °N, 94.18 °W | Updated 11 minutes ago

Overcast
Overcast
71.3 °F
Feels Like 71.3 °F
N
0.0
Wind Variable Wind from East
Gusts 1.0 mph

Today
High -- | Low -- °F
--% Chance of Precip.
Yesterday
High -- | Low -- °F
Precip. -- in
Pressure 30.00 in
Visibility 10.0 miles
Clouds Scattered Clouds 1500 ft
Scattered Clouds 2700 ft
Scattered Clouds 3200 ft
Dew Point Not available.
Humidity Not available.
Rainfall 0.00 in
Snow Depth Not available.
6:51 AM 6:08 PM
Waning Crescent, 33% visible
METAR KBMT 201415Z AUTO 13007KT 10SM SCT015 SCT027 SCT032 23/20 A3000 RMK AO2 T02310196
Pressure 30.00 in
Visibility 10.0 miles
Clouds Scattered Clouds 1500 ft
Scattered Clouds 2700 ft
Scattered Clouds 3200 ft
Dew Point Not available.
Humidity Not available.
Rainfall 0.00 in
Snow Depth Not available.
6:51 AM 6:08 PM
Waning Crescent, 33% visible
METAR KBMT 201415Z AUTO 13007KT 10SM SCT015 SCT027 SCT032 23/20 A3000 RMK AO2 T02310196

Get Your Daily Forecast Email!

Thanks for signing up!

Be on the lookout for a verification email in your inbox.

You'll start receiving the daily forecast at 8 AM.

×

10-Day Weather Forecast

Almanac

Astronomy

Feb. 20, 2017 Rise Set
Actual Time
Civil Twilight
Nautical Twilight
Astronomical Twilight
Moon
Length of Visible Light
Length of Day
Tomorrow will be .
, % of the Moon is Illuminated

Today's Extremes

State Highs State Lows

Community

WunderPhotos

Upload Photos

1,962,540 photos uploaded!

WunderBlog® & News

Nearby

Air Quality

  Air Quality AQ Index Pollutant
Not available.

Snow Depth

Station Depth Elevation

Earthquake Activity

City Distance Mag. Time & Date
Minimum magnitude displayed is 2.5.

Coastal Water Temperatures

Place Temperature

Stations

Nearby Weather Stations

Station Location Temp. Windchill Dew Point Humidity Wind Precip. Elev Updated Type
                   

Watches & Warnings

There are currently no watches in effect.